Beaverton, Canada
Current Conditions -  °F | °C
As of 3:00 AM on Thursday 29 Jan 2015 (Local Time) from CYQA Reporting Station
Broken Clouds Broken Clouds  
Wind Chill:   Ceiling: 12000
Heat Index: 14°   Visibility: 9mi
Dew Point:   Wind: 7mph
Humidity: 62%   Direction: 140°SE
Pressure: 30.15"   Gusts: NA
Location:  44.43°N, 79.15°W
Report Text: CYQA 290800Z AUTO 14006KT 9SM BKN120 M10/M16 A3015 RMK SLP228
Loading
Personal Weather Stations






























Interactive Weather Map New forecast layout! Learn more

10-Day Weather Forecast

Advertisements
Track Severe Weather on mobile